Time;durP1;ratioP1;P1;durP2;ratioP2;P2;SDS_P1;SDS_P2;PMS_P1;PMS_P2;Temp;Humidity;BMP_temperature;BMP_pressure;BME280_temperature;BME280_humidity;BME280_pressure;Samples;Min_cycle;Max_cycle;Signal;HPM_P1;HPM_P2
2022/11/23 00:01:29;;;;;;;63.70;35.97;;;;;;;7.68;100.00;93399.31;5058442;28;21359;-80
2022/11/23 00:03:58;;;;;;;85.10;44.67;;;;;;;7.68;100.00;93419.97;5064307;28;20193;-79
2022/11/23 00:06:26;;;;;;;62.20;35.27;;;;;;;7.64;100.00;93418.88;5061716;28;20208;-79
2022/11/23 00:08:54;;;;;;;51.13;28.73;;;;;;;7.55;100.00;93422.84;5058427;28;20627;-80
2022/11/23 00:11:23;;;;;;;42.87;24.53;;;;;;;7.55;100.00;93422.06;5062203;28;20205;-80
2022/11/23 00:13:51;;;;;;;41.00;23.93;;;;;;;7.51;100.00;93416.56;5063109;28;20220;-79
2022/11/23 00:16:20;;;;;;;37.80;23.77;;;;;;;7.45;100.00;93420.06;5065497;28;20549;-80
2022/11/23 00:18:47;;;;;;;42.03;25.67;;;;;;;7.45;100.00;93409.72;5063233;28;20205;-79
2022/11/23 00:21:15;;;;;;;40.73;25.47;;;;;;;7.38;100.00;93376.28;5056094;28;20231;-80
2022/11/23 00:23:43;;;;;;;45.07;27.20;;;;;;;7.60;100.00;93396.28;5060553;28;20206;-81
2022/11/23 00:26:10;;;;;;;41.53;24.87;;;;;;;7.59;100.00;93395.50;5062681;28;20624;-80
2022/11/23 00:28:39;;;;;;;37.80;21.33;;;;;;;7.48;100.00;93401.50;5060236;28;20244;-81
2022/11/23 00:31:06;;;;;;;37.30;20.87;;;;;;;7.55;100.00;93404.75;5057142;28;20252;-79
2022/11/23 00:33:33;;;;;;;32.93;20.20;;;;;;;7.60;100.00;93398.88;5062625;28;20634;-78
2022/11/23 00:36:01;;;;;;;35.70;21.50;;;;;;;7.64;100.00;93405.19;5059450;28;20193;-79
2022/11/23 00:38:28;;;;;;;35.57;21.90;;;;;;;7.67;100.00;93418.44;5064277;28;20280;-79
2022/11/23 00:41:00;;;;;;;26.60;17.13;;;;;;;7.66;100.00;93411.69;5058354;28;20201;-80
2022/11/23 00:43:27;;;;;;;27.97;16.20;;;;;;;7.50;100.00;93403.88;5061594;28;20222;-79
2022/11/23 00:46:07;;;;;;;24.83;15.70;;;;;;;7.59;100.00;93402.50;5062241;28;20212;-79
2022/11/23 00:48:35;;;;;;;24.13;14.40;;;;;;;7.41;100.00;93393.13;5056385;28;20209;-79
2022/11/23 00:51:04;;;;;;;23.10;13.97;;;;;;;7.40;100.00;93399.28;5052324;28;20198;-79
2022/11/23 00:53:32;;;;;;;20.87;14.37;;;;;;;7.30;100.00;93396.53;5056557;28;20230;-80
2022/11/23 00:55:59;;;;;;;22.53;14.73;;;;;;;7.10;100.00;93383.97;5060234;28;20642;-79
2022/11/23 00:58:27;;;;;;;22.83;14.90;;;;;;;6.97;100.00;93393.75;5062547;28;20193;-78
2022/11/23 01:01:01;;;;;;;25.23;15.43;;;;;;;6.84;100.00;93400.72;5060455;28;20202;-79
2022/11/23 01:03:30;;;;;;;27.57;15.33;;;;;;;6.91;100.00;93397.25;5057651;28;20177;-79
2022/11/23 01:06:01;;;;;;;25.77;15.13;;;;;;;6.98;100.00;93396.13;5062707;28;20205;-78
2022/11/23 01:08:28;;;;;;;26.57;14.07;;;;;;;7.10;100.00;93393.53;5064041;28;20205;-78
2022/11/23 01:10:59;;;;;;;27.17;15.70;;;;;;;7.25;100.00;93389.44;5058467;28;20595;-79
2022/11/23 01:13:25;;;;;;;22.97;14.70;;;;;;;7.32;100.00;93378.97;5057446;28;20205;-79
2022/11/23 01:15:52;;;;;;;23.37;14.87;;;;;;;7.47;100.00;93405.13;5063314;28;20205;-79
2022/11/23 01:18:19;;;;;;;19.63;12.10;;;;;;;7.41;100.00;93391.31;5060441;28;20198;-79
2022/11/23 01:20:47;;;;;;;20.87;13.23;;;;;;;7.46;100.00;93392.41;5062009;28;20234;-79
2022/11/23 01:23:14;;;;;;;20.57;13.03;;;;;;;7.48;100.00;93387.78;5063300;28;20285;-79
2022/11/23 01:25:41;;;;;;;25.17;14.23;;;;;;;7.47;100.00;93391.41;5062319;28;20193;-77
2022/11/23 01:28:08;;;;;;;22.10;14.83;;;;;;;7.47;100.00;93391.41;5061411;28;20193;-78
2022/11/23 01:30:35;;;;;;;24.43;15.60;;;;;;;7.56;100.00;93403.72;5061210;28;20291;-79
2022/11/23 01:33:02;;;;;;;26.47;18.03;;;;;;;7.62;100.00;93389.13;5060279;28;20206;-78
2022/11/23 01:35:30;;;;;;;30.27;18.63;;;;;;;7.69;100.00;93387.16;5058638;28;20229;-78
2022/11/23 01:37:58;;;;;;;30.13;17.63;;;;;;;7.78;100.00;93381.41;5060330;28;20205;-79
2022/11/23 01:40:24;;;;;;;26.97;17.27;;;;;;;7.81;100.00;93377.56;5060945;28;20201;-79
2022/11/23 01:42:55;;;;;;;28.50;17.37;;;;;;;7.87;100.00;93386.97;5053697;28;20627;-78
2022/11/23 01:45:33;;;;;;;27.50;15.67;;;;;;;7.83;100.00;93384.06;5065279;28;20190;-77
2022/11/23 01:48:01;;;;;;;20.83;14.00;;;;;;;7.82;100.00;93397.25;5059463;28;20558;-83
2022/11/23 01:50:28;;;;;;;22.07;14.63;;;;;;;7.85;100.00;93392.38;5064421;28;20203;-83
2022/11/23 01:52:55;;;;;;;22.27;15.33;;;;;;;7.86;100.00;93385.41;5051925;28;20633;-82
2022/11/23 01:55:24;;;;;;;23.33;14.17;;;;;;;7.74;100.00;93395.78;5059070;28;20237;-82
2022/11/23 01:57:51;;;;;;;19.60;12.53;;;;;;;7.46;100.00;93392.41;5058366;28;20202;-81
2022/11/23 02:00:18;;;;;;;18.30;12.70;;;;;;;7.18;100.00;93401.72;5055202;28;20202;-78
2022/11/23 02:02:51;;;;;;;19.40;12.37;;;;;;;6.99;100.00;93381.41;5057669;28;20205;-79
2022/11/23 02:05:20;;;;;;;21.63;13.20;;;;;;;6.94;100.00;93366.59;5058714;28;20216;-77
2022/11/23 02:07:49;;;;;;;21.77;13.63;;;;;;;6.96;100.00;93361.19;5063100;28;20960;-79
2022/11/23 02:10:16;;;;;;;23.47;14.70;;;;;;;7.07;100.00;93363.00;5055132;28;20205;-82
2022/11/23 02:12:45;;;;;;;23.37;14.80;;;;;;;7.21;100.00;93365.09;5056850;28;20217;-82
2022/11/23 02:15:11;;;;;;;18.73;13.10;;;;;;;7.26;100.00;93366.97;5061007;28;20636;-82
2022/11/23 02:17:38;;;;;;;20.20;13.10;;;;;;;7.27;100.00;93360.81;5058666;28;20201;-82
2022/11/23 02:20:09;;;;;;;25.77;15.43;;;;;;;7.28;100.00;93367.53;5056584;28;20605;-82
2022/11/23 02:22:43;;;;;;;23.07;14.90;;;;;;;7.29;100.00;93358.78;5061910;28;20205;-82
2022/11/23 02:25:19;;;;;;;23.43;14.73;;;;;;;7.35;100.00;93358.66;5062054;28;20193;-81
2022/11/23 02:27:47;;;;;;;23.90;14.73;;;;;;;7.48;100.00;93360.16;5061010;28;20204;-80
2022/11/23 02:30:14;;;;;;;21.57;14.37;;;;;;;7.53;100.00;93359.47;5061833;28;20285;-81
2022/11/23 02:32:42;;;;;;;22.13;14.17;;;;;;;7.56;100.00;93353.84;5061143;28;20659;-78
2022/11/23 02:35:10;;;;;;;21.37;13.30;;;;;;;7.57;100.00;93343.25;5061230;28;20229;-76
2022/11/23 02:37:37;;;;;;;23.17;13.27;;;;;;;7.67;100.00;93355.59;5061744;28;20577;-78
2022/11/23 02:40:16;;;;;;;19.67;13.43;;;;;;;7.67;100.00;93347.84;5063776;28;20210;-80
2022/11/23 02:42:44;;;;;;;18.63;12.70;;;;;;;7.70;100.00;93329.28;5061374;28;20213;-79
2022/11/23 02:45:21;;;;;;;20.77;12.87;;;;;;;7.57;100.00;93307.06;5058058;28;20232;-80
2022/11/23 02:47:48;;;;;;;20.60;13.10;;;;;;;7.69;100.00;93323.31;5060919;28;20202;-80
2022/11/23 02:50:16;;;;;;;18.00;12.47;;;;;;;7.73;100.00;93327.03;5064032;28;20687;-80
2022/11/23 02:52:43;;;;;;;17.10;12.03;;;;;;;7.72;100.00;93315.09;5066879;28;21544;-78
2022/11/23 02:55:13;;;;;;;16.90;12.10;;;;;;;7.74;100.00;93323.41;5067480;28;20647;-78
2022/11/23 02:57:40;;;;;;;17.90;11.60;;;;;;;7.81;100.00;93316.28;5064485;28;20189;-79
2022/11/23 03:00:08;;;;;;;16.43;11.60;;;;;;;7.76;100.00;93305.84;5065306;28;20668;-78
2022/11/23 03:02:36;;;;;;;20.07;12.77;;;;;;;7.75;100.00;93299.13;5061914;28;20209;-80
2022/11/23 03:05:03;;;;;;;18.77;13.07;;;;;;;7.75;100.00;93313.84;5058853;28;20661;-79
2022/11/23 03:07:30;;;;;;;20.73;12.90;;;;;;;7.68;100.00;93288.13;5066918;28;20209;-80
2022/11/23 03:09:57;;;;;;;20.07;12.50;;;;;;;7.69;100.00;93296.69;5061245;28;20205;-80
2022/11/23 03:12:23;;;;;;;20.13;12.77;;;;;;;7.61;100.00;93292.69;5063751;28;20195;-79
2022/11/23 03:14:50;;;;;;;19.10;13.27;;;;;;;7.62;100.00;93277.97;5061708;28;20232;-80
2022/11/23 03:17:17;;;;;;;20.70;13.10;;;;;;;7.59;100.00;93299.88;5061007;28;20201;-80
2022/11/23 03:19:46;;;;;;;21.33;13.73;;;;;;;7.56;100.00;93289.22;5058978;28;20217;-78
2022/11/23 03:22:12;;;;;;;19.90;12.87;;;;;;;7.59;100.00;93288.78;5059645;28;20205;-78
2022/11/23 03:24:39;;;;;;;20.07;13.50;;;;;;;7.64;100.00;93294.00;5062548;28;20208;-78
2022/11/23 03:27:09;;;;;;;22.73;14.00;;;;;;;7.61;100.00;93269.41;5062681;28;20635;-80
2022/11/23 03:29:36;;;;;;;18.77;13.00;;;;;;;7.56;100.00;93297.75;5060890;28;20231;-79
2022/11/23 03:32:02;;;;;;;20.13;13.70;;;;;;;7.47;100.00;93293.19;5062107;28;20208;-77
2022/11/23 03:34:29;;;;;;;21.60;13.70;;;;;;;7.46;100.00;93268.38;5057882;28;20230;-78
2022/11/23 03:36:57;;;;;;;22.27;14.37;;;;;;;7.27;100.00;93293.63;5064136;28;20213;-79
2022/11/23 03:39:24;;;;;;;21.43;14.27;;;;;;;7.23;100.00;93262.31;5062414;28;20263;-79
2022/11/23 03:41:51;;;;;;;23.20;13.97;;;;;;;7.25;100.00;93264.63;5063842;28;20617;-81
2022/11/23 03:44:18;;;;;;;21.77;13.23;;;;;;;7.24;100.00;93278.59;5056064;28;20661;-82
2022/11/23 03:46:45;;;;;;;21.43;13.17;;;;;;;7.21;100.00;93235.13;5056226;28;20255;-81
2022/11/23 03:49:12;;;;;;;22.00;13.83;;;;;;;7.26;100.00;93250.72;5065796;28;20194;-81
2022/11/23 03:51:38;;;;;;;20.40;12.90;;;;;;;7.25;100.00;93251.72;5054642;28;20230;-81
2022/11/23 03:54:07;;;;;;;19.37;13.07;;;;;;;7.12;100.00;93267.53;5065496;28;20240;-80
2022/11/23 03:56:34;;;;;;;19.63;11.73;;;;;;;7.14;100.00;93234.47;5061990;28;20209;-80
2022/11/23 03:59:00;;;;;;;18.23;11.30;;;;;;;7.09;100.00;93231.81;5064692;28;20216;-80
2022/11/23 04:01:27;;;;;;;16.83;11.30;;;;;;;7.11;100.00;93263.34;5057221;28;20202;-79
2022/11/23 04:03:54;;;;;;;21.97;13.00;;;;;;;7.10;100.00;93264.38;5060471;28;20721;-79
2022/11/23 04:06:21;;;;;;;19.30;12.97;;;;;;;7.16;100.00;93258.28;5058575;28;20573;-78
2022/11/23 04:08:48;;;;;;;19.80;13.90;;;;;;;7.23;100.00;93258.94;5060943;28;20210;-79
2022/11/23 04:11:16;;;;;;;24.37;14.80;;;;;;;7.31;100.00;93277.44;5063202;28;20746;-79
2022/11/23 04:13:42;;;;;;;19.57;13.30;;;;;;;7.30;100.00;93268.09;5062991;28;20251;-78
2022/11/23 04:16:09;;;;;;;19.70;13.37;;;;;;;7.34;100.00;93260.66;5060017;28;20596;-78
2022/11/23 04:18:36;;;;;;;20.87;12.93;;;;;;;7.33;100.00;93274.63;5060649;28;20310;-78
2022/11/23 04:21:03;;;;;;;19.97;12.53;;;;;;;7.29;100.00;93273.50;5060103;28;20201;-78
2022/11/23 04:23:30;;;;;;;22.23;13.67;;;;;;;7.40;100.00;93270.88;5057538;28;20201;-79
2022/11/23 04:25:57;;;;;;;19.60;12.50;;;;;;;7.38;100.00;93278.09;5063625;28;20217;-79
2022/11/23 04:28:25;;;;;;;20.03;13.50;;;;;;;7.46;100.00;93279.50;5063010;28;20197;-78
2022/11/23 04:30:52;;;;;;;20.73;14.77;;;;;;;7.39;100.00;93286.59;5064433;28;20272;-79
2022/11/23 04:33:18;;;;;;;26.77;18.53;;;;;;;7.42;100.00;93275.78;5058089;28;20210;-79
2022/11/23 04:35:46;;;;;;;27.47;18.70;;;;;;;7.40;100.00;93285.59;5059368;28;20328;-78
2022/11/23 04:38:13;;;;;;;23.17;15.93;;;;;;;7.39;100.00;93263.34;5055753;28;20830;-77
2022/11/23 04:40:40;;;;;;;26.20;17.13;;;;;;;7.36;100.00;93274.91;5057555;28;20202;-81
2022/11/23 04:43:08;;;;;;;27.40;17.00;;;;;;;7.48;100.00;93287.78;5061924;28;20206;-80
2022/11/23 04:45:39;;;;;;;25.40;17.17;;;;;;;7.37;100.00;93294.59;5060928;28;20202;-80
2022/11/23 04:48:06;;;;;;;24.37;17.00;;;;;;;7.37;100.00;93299.75;5058151;28;20674;-81
2022/11/23 04:50:36;;;;;;;22.50;15.03;;;;;;;7.24;100.00;93302.59;5062370;28;20581;-81
2022/11/23 04:53:04;;;;;;;26.90;16.43;;;;;;;7.12;100.00;93285.59;5060812;28;20552;-81
2022/11/23 04:55:32;;;;;;;29.27;17.10;;;;;;;7.15;100.00;93309.19;5065306;28;20217;-81
2022/11/23 04:57:58;;;;;;;26.90;17.20;;;;;;;7.18;100.00;93323.44;5064255;28;20205;-80
2022/11/23 05:00:26;;;;;;;28.63;18.30;;;;;;;7.15;100.00;93301.44;5061085;28;20239;-79
2022/11/23 05:02:54;;;;;;;24.37;16.73;;;;;;;6.97;100.00;93285.31;5055825;28;20204;-80
2022/11/23 05:05:21;;;;;;;26.13;15.97;;;;;;;6.88;100.00;93309.91;5057024;28;20274;-78
2022/11/23 05:07:48;;;;;;;26.23;16.50;;;;;;;6.89;100.00;93316.66;5060128;28;20221;-79
2022/11/23 05:10:15;;;;;;;25.77;16.07;;;;;;;6.98;100.00;93303.16;5061536;28;20206;-78
2022/11/23 05:12:41;;;;;;;23.23;15.80;;;;;;;7.01;100.00;93307.88;5060265;28;20224;-80
2022/11/23 05:15:11;;;;;;;23.47;15.67;;;;;;;7.07;100.00;93301.75;5065089;28;20239;-80
2022/11/23 05:17:38;;;;;;;28.47;16.00;;;;;;;6.99;100.00;93322.00;5065749;28;20560;-76
2022/11/23 05:20:07;;;;;;;23.80;16.47;;;;;;;7.00;100.00;93319.22;5063609;28;20262;-77
2022/11/23 05:22:34;;;;;;;29.67;16.70;;;;;;;7.00;100.00;93318.41;5061330;28;20205;-76
2022/11/23 05:25:01;;;;;;;25.87;17.00;;;;;;;7.00;100.00;93293.38;5061389;28;20200;-76
2022/11/23 05:27:28;;;;;;;23.83;15.67;;;;;;;7.07;100.00;93312.09;5060147;28;20205;-79
2022/11/23 05:29:54;;;;;;;26.87;15.53;;;;;;;7.14;100.00;93301.63;5061905;28;20584;-79
2022/11/23 05:32:21;;;;;;;25.50;15.63;;;;;;;7.02;100.00;93309.44;5064537;28;20197;-78
2022/11/23 05:34:48;;;;;;;24.23;15.13;;;;;;;6.95;100.00;93274.44;5059356;28;20237;-78
2022/11/23 05:37:17;;;;;;;25.70;15.60;;;;;;;6.87;100.00;93270.41;5060165;28;20201;-79
2022/11/23 05:39:43;;;;;;;23.10;14.90;;;;;;;6.83;100.00;93252.03;5063863;28;20212;-79
2022/11/23 05:42:10;;;;;;;24.73;15.23;;;;;;;6.87;100.00;93282.53;5063018;28;20189;-78
2022/11/23 05:44:37;;;;;;;34.17;20.10;;;;;;;6.94;100.00;93278.00;5063013;28;20193;-79
2022/11/23 05:47:04;;;;;;;46.57;27.07;;;;;;;7.03;100.00;93307.63;5063088;28;20205;-78
2022/11/23 05:49:31;;;;;;;36.07;22.73;;;;;;;7.02;100.00;93309.44;5059282;28;20197;-80
2022/11/23 05:51:57;;;;;;;30.47;20.43;;;;;;;7.10;100.00;93319.38;5064691;28;20225;-80
2022/11/23 05:54:26;;;;;;;35.63;20.70;;;;;;;7.11;100.00;93292.56;5057789;28;20197;-80
2022/11/23 05:56:52;;;;;;;29.47;18.83;;;;;;;7.13;100.00;93290.53;5056830;28;20208;-80
2022/11/23 05:59:19;;;;;;;29.50;19.17;;;;;;;7.13;100.00;93292.34;5066436;28;20205;-80
2022/11/23 06:01:46;;;;;;;31.50;19.77;;;;;;;7.20;100.00;93290.41;5064143;28;21312;-79
2022/11/23 06:04:13;;;;;;;28.40;18.30;;;;;;;7.23;100.00;93287.34;5065813;28;20268;-80
2022/11/23 06:06:40;;;;;;;29.83;18.87;;;;;;;7.28;100.00;93293.38;5063209;28;20198;-79
2022/11/23 06:09:07;;;;;;;28.50;19.53;;;;;;;7.32;100.00;93298.88;5065291;28;20710;-79
2022/11/23 06:11:35;;;;;;;31.77;19.90;;;;;;;7.36;100.00;93302.56;5045863;28;20197;-82
2022/11/23 06:14:02;;;;;;;27.30;19.37;;;;;;;7.31;100.00;93308.44;5057728;28;20749;-81
2022/11/23 06:16:28;;;;;;;37.77;23.43;;;;;;;7.26;100.00;93308.34;5058453;28;20217;-81
2022/11/23 06:18:55;;;;;;;28.80;19.87;;;;;;;7.42;100.00;93309.38;5056406;28;20204;-81
2022/11/23 06:21:22;;;;;;;35.23;20.37;;;;;;;7.44;100.00;93326.22;5061101;28;20621;-82
2022/11/23 06:23:49;;;;;;;29.97;19.63;;;;;;;7.49;100.00;93322.19;5056480;28;20194;-81
2022/11/23 06:26:16;;;;;;;31.33;19.93;;;;;;;7.52;100.00;93326.88;5057090;28;20232;-80
2022/11/23 06:28:44;;;;;;;31.43;20.67;;;;;;;7.44;100.00;93339.16;5057689;28;20258;-81
2022/11/23 06:31:11;;;;;;;34.00;20.83;;;;;;;7.50;100.00;93336.69;5058764;28;20243;-81
2022/11/23 06:33:38;;;;;;;31.83;20.90;;;;;;;7.44;100.00;93346.91;5063144;28;20197;-81
2022/11/23 06:36:05;;;;;;;33.50;21.40;;;;;;;7.49;100.00;93341.06;5056974;28;20225;-82
2022/11/23 06:38:32;;;;;;;34.40;21.17;;;;;;;7.46;100.00;93340.72;5053257;28;20672;-81
2022/11/23 06:41:00;;;;;;;39.80;22.60;;;;;;;7.48;100.00;93329.13;5058610;28;20201;-80
2022/11/23 06:43:26;;;;;;;42.03;25.87;;;;;;;7.55;100.00;93331.59;5063908;28;20628;-80
2022/11/23 06:45:55;;;;;;;51.87;31.73;;;;;;;7.43;100.00;93303.22;5062112;28;20278;-81
2022/11/23 06:48:22;;;;;;;52.23;32.90;;;;;;;7.59;100.00;93314.63;5060274;28;20189;-77
2022/11/23 06:50:49;;;;;;;48.13;31.80;;;;;;;7.66;100.00;93316.03;5060964;28;20573;-77
2022/11/23 06:53:16;;;;;;;56.33;33.93;;;;;;;7.67;100.00;93309.84;5060640;28;20793;-78
2022/11/23 06:55:43;;;;;;;53.27;35.30;;;;;;;7.78;100.00;93321.13;5063435;28;20226;-76
2022/11/23 06:58:10;;;;;;;53.13;34.30;;;;;;;7.77;100.00;93302.25;5060386;28;20205;-76
2022/11/23 07:00:37;;;;;;;55.40;33.50;;;;;;;7.78;100.00;93328.91;5059742;28;20201;-77
2022/11/23 07:03:05;;;;;;;51.63;31.63;;;;;;;7.75;100.00;93324.97;5059892;28;20193;-76
2022/11/23 07:05:32;;;;;;;40.10;25.80;;;;;;;7.87;100.00;93323.13;5062717;28;20196;-76
2022/11/23 07:07:59;;;;;;;50.60;28.60;;;;;;;7.88;100.00;93319.50;5060729;28;20251;-76
2022/11/23 07:10:25;;;;;;;44.33;28.53;;;;;;;7.96;100.00;93332.03;5060835;28;20189;-76
2022/11/23 07:12:52;;;;;;;47.93;29.73;;;;;;;7.95;100.00;93311.59;5060948;28;20205;-76
2022/11/23 07:15:19;;;;;;;52.17;32.40;;;;;;;7.88;100.00;93308.34;5062296;28;21343;-79
2022/11/23 07:17:46;;;;;;;58.17;34.17;;;;;;;8.00;100.00;93317.63;5059243;28;20197;-81
2022/11/23 07:20:15;;;;;;;66.57;36.60;;;;;;;8.05;100.00;93329.88;5057946;28;20213;-80
2022/11/23 07:22:42;;;;;;;52.53;33.10;;;;;;;8.07;100.00;93337.38;5059078;28;20632;-79
2022/11/23 07:25:10;;;;;;;48.07;29.27;;;;;;;8.04;100.00;93330.09;5064435;28;20202;-81
2022/11/23 07:27:37;;;;;;;42.10;26.00;;;;;;;8.17;100.00;93340.91;5062455;28;20204;-77
2022/11/23 07:30:05;;;;;;;46.17;27.80;;;;;;;8.22;100.00;93322.88;5062186;28;20710;-76
2022/11/23 07:32:31;;;;;;;50.17;31.13;;;;;;;8.26;100.00;93323.97;5059614;28;20210;-76
2022/11/23 07:34:58;;;;;;;42.03;27.07;;;;;;;8.32;100.00;93327.44;5059774;28;20605;-76
2022/11/23 07:37:27;;;;;;;43.97;26.67;;;;;;;8.34;100.00;93330.59;5061177;28;20201;-76
2022/11/23 07:39:53;;;;;;;42.00;25.63;;;;;;;8.38;100.00;93342.81;5062678;28;20202;-77
2022/11/23 07:42:21;;;;;;;39.97;26.67;;;;;;;8.39;100.00;93346.19;5060950;28;20193;-77
2022/11/23 07:44:47;;;;;;;30.73;19.03;;;;;;;8.33;100.00;93329.03;5058712;28;20233;-78
2022/11/23 07:47:14;;;;;;;27.50;18.23;;;;;;;8.33;100.00;93322.03;5061177;28;20194;-76
2022/11/23 07:49:41;;;;;;;28.77;18.27;;;;;;;8.32;100.00;93328.22;5063855;28;20201;-77
2022/11/23 07:52:08;;;;;;;26.37;16.23;;;;;;;8.32;100.00;93335.22;5059899;28;20695;-80
2022/11/23 07:54:36;;;;;;;22.83;15.90;;;;;;;8.26;100.00;93338.69;5058898;28;20581;-81
2022/11/23 07:57:03;;;;;;;26.80;17.50;;;;;;;8.36;100.00;93339.69;5092540;22;20244;-79
2022/11/23 07:59:29;;;;;;;26.17;16.90;;;;;;;8.41;100.00;93332.00;5026482;28;20823;-80
2022/11/23 08:01:56;;;;;;;25.47;16.17;;;;;;;8.41;100.00;93333.78;5035817;28;20206;-80
2022/11/23 08:04:23;;;;;;;29.47;17.07;;;;;;;8.40;100.00;93320.06;5045076;28;20198;-80
2022/11/23 08:06:50;;;;;;;31.03;18.57;;;;;;;8.48;100.00;93324.06;5046202;28;20975;-80
2022/11/23 08:09:16;;;;;;;31.00;19.93;;;;;;;8.41;100.00;93344.16;5045023;28;21082;-81
2022/11/23 08:11:45;;;;;;;28.83;19.03;;;;;;;8.45;100.00;93314.97;5046141;28;20210;-79
2022/11/23 08:14:11;;;;;;;33.50;22.23;;;;;;;8.38;100.00;93319.53;5045286;28;20194;-80
2022/11/23 08:16:38;;;;;;;36.00;23.47;;;;;;;8.48;100.00;93311.13;5041829;28;20639;-76
2022/11/23 08:19:05;;;;;;;38.60;23.47;;;;;;;8.59;100.00;93299.09;5040715;28;20201;-77
2022/11/23 08:21:32;;;;;;;34.87;22.57;;;;;;;8.72;100.00;93312.47;5042289;28;20595;-77
2022/11/23 08:23:59;;;;;;;32.20;21.90;;;;;;;8.75;100.00;93324.94;5041467;28;20194;-76
2022/11/23 08:26:25;;;;;;;33.73;22.30;;;;;;;8.85;100.00;93312.13;5041937;28;20562;-76
2022/11/23 08:28:54;;;;;;;32.57;22.30;;;;;;;8.96;100.00;93321.59;5039194;28;20225;-78
2022/11/23 08:31:21;;;;;;;33.03;22.37;;;;;;;9.08;100.00;93306.72;5029101;28;20289;-78
2022/11/23 08:33:47;;;;;;;33.03;21.43;;;;;;;9.13;100.00;93313.75;5042463;28;20209;-78
2022/11/23 08:36:14;;;;;;;32.37;21.73;;;;;;;9.18;100.00;93300.09;5041327;28;20221;-77
2022/11/23 08:38:41;;;;;;;38.57;23.07;;;;;;;9.26;100.00;93318.59;5041356;28;20202;-77
2022/11/23 08:41:08;;;;;;;38.10;23.17;;;;;;;9.32;100.00;93320.19;5040758;28;20209;-77
2022/11/23 08:43:35;;;;;;;33.43;21.77;;;;;;;9.40;100.00;93316.41;5042514;28;20201;-77
2022/11/23 08:46:05;;;;;;;32.77;21.70;;;;;;;9.47;100.00;93312.56;5041696;28;20211;-77
2022/11/23 08:48:32;;;;;;;34.80;21.97;;;;;;;9.54;100.00;93307.22;5041974;28;20198;-80
2022/11/23 08:50:59;;;;;;;31.00;21.03;;;;;;;9.63;100.00;93311.72;5039951;28;20197;-79
2022/11/23 08:53:26;;;;;;;34.63;22.03;;;;;;;9.62;100.00;93319.72;5042097;28;20198;-79
2022/11/23 08:55:53;;;;;;;34.37;21.03;;;;;;;9.75;100.00;93318.56;5042549;28;20695;-79
2022/11/23 08:58:20;;;;;;;26.67;19.40;;;;;;;9.68;100.00;93309.16;5041794;28;20728;-77
2022/11/23 09:00:47;;;;;;;29.27;20.07;;;;;;;9.82;100.00;93319.91;5040375;28;20232;-79
2022/11/23 09:03:15;;;;;;;33.50;19.90;;;;;;;9.87;100.00;93314.00;5041544;28;20209;-77
2022/11/23 09:05:42;;;;;;;25.70;18.47;;;;;;;10.00;100.00;93321.38;5042301;28;20202;-78
2022/11/23 09:08:08;;;;;;;29.77;18.53;;;;;;;10.09;100.00;93309.53;5041395;28;20198;-79
2022/11/23 09:10:36;;;;;;;26.57;18.73;;;;;;;10.14;100.00;93310.38;5041859;28;20283;-79
2022/11/23 09:13:03;;;;;;;27.87;18.97;;;;;;;10.25;100.00;93306.81;5040685;28;20196;-78
2022/11/23 09:15:30;;;;;;;31.50;19.73;;;;;;;10.34;100.00;93312.31;5041360;28;20198;-78
2022/11/23 09:17:57;;;;;;;31.47;20.23;;;;;;;10.34;100.00;93285.56;5042684;28;20205;-78
2022/11/23 09:20:25;;;;;;;30.67;21.33;;;;;;;10.50;100.00;93303.63;5041331;28;20632;-77
2022/11/23 09:22:53;;;;;;;33.67;22.50;;;;;;;10.52;100.00;93296.34;5041575;28;20217;-78
2022/11/23 09:25:20;;;;;;;44.63;22.10;;;;;;;10.60;100.00;93303.66;5042050;28;20280;-77
2022/11/23 09:27:47;;;;;;;28.90;20.60;;;;;;;10.67;100.00;93290.47;5041765;28;20225;-79
2022/11/23 09:30:15;;;;;;;33.90;20.97;;;;;;;10.80;100.00;93300.41;5042547;28;20198;-75
2022/11/23 09:32:42;;;;;;;31.93;20.27;;;;;;;10.89;100.00;93309.28;5045546;28;20280;-78
2022/11/23 09:35:09;;;;;;;28.73;18.37;;;;;;;10.96;100.00;93296.06;5047821;28;20197;-75
2022/11/23 09:37:37;;;;;;;28.83;18.00;;;;;;;10.97;100.00;93301.00;5048163;28;20217;-76
2022/11/23 09:40:06;;;;;;;26.80;17.37;;;;;;;11.06;100.00;93294.28;5048765;28;20209;-75
2022/11/23 09:42:46;;;;;;;30.60;17.10;;;;;;;11.44;100.00;93282.69;5048234;28;20194;-79
2022/11/23 09:45:22;;;;;;;24.37;15.93;;;;;;;12.70;100.00;93281.97;5048491;28;20205;-78
2022/11/23 09:48:06;;;;;;;20.90;14.60;;;;;;;14.67;100.00;93294.69;5046538;28;20675;-79
2022/11/23 09:50:45;;;;;;;19.80;13.37;;;;;;;16.54;91.96;93313.28;5046102;28;20667;-74
2022/11/23 09:53:18;;;;;;;17.50;12.27;;;;;;;18.04;86.16;93322.00;5051534;28;20308;-79
2022/11/23 09:55:47;;;;;;;18.57;12.93;;;;;;;19.55;79.22;93322.78;5049340;28;20200;-77
2022/11/23 09:58:16;;;;;;;21.57;12.73;;;;;;;20.69;74.60;93322.28;5048938;28;20735;-76
2022/11/23 10:00:48;;;;;;;16.57;11.13;;;;;;;21.39;70.59;93316.53;5047901;28;20675;-80
2022/11/23 10:03:18;;;;;;;17.80;12.13;;;;;;;22.05;69.17;93332.69;5048945;28;20243;-77
2022/11/23 10:05:53;;;;;;;14.95;10.68;;;;;;;22.59;66.61;93320.31;5050542;28;20210;-77
2022/11/23 10:08:33;;;;;;;14.90;10.73;;;;;;;23.49;63.70;93321.13;5050733;28;20205;-78
2022/11/23 10:11:19;;;;;;;14.32;9.25;;;;;;;24.21;59.41;93346.16;5049735;28;20194;-79
2022/11/23 10:13:56;;;;;;;11.32;8.10;;;;;;;24.38;56.82;93332.59;5049047;28;20875;-76
2022/11/23 10:16:36;;;;;;;11.88;8.70;;;;;;;25.00;55.72;93334.72;5046297;28;20224;-79
2022/11/23 10:19:09;;;;;;;11.55;8.80;;;;;;;25.66;54.53;93318.16;5047092;28;21164;-75
2022/11/23 10:21:45;;;;;;;10.63;8.15;;;;;;;25.75;51.27;93338.16;5052646;28;20251;-74
2022/11/23 10:24:19;;;;;;;12.38;7.65;;;;;;;25.63;50.13;93335.59;5049792;28;20185;-75
2022/11/23 10:26:48;;;;;;;8.95;6.95;;;;;;;25.63;50.92;93322.28;5049689;28;20198;-76
2022/11/23 10:29:20;;;;;;;9.35;6.82;;;;;;;25.71;51.13;93326.69;5030102;28;20272;-75
2022/11/23 10:31:49;;;;;;;8.18;6.38;;;;;;;25.81;50.23;93328.81;5040700;28;20209;-76
2022/11/23 10:34:22;;;;;;;9.07;6.82;;;;;;;25.99;50.00;93325.75;5048616;28;20205;-76
2022/11/23 10:36:49;;;;;;;12.60;6.82;;;;;;;26.24;49.83;93330.56;5045568;28;20225;-76
2022/11/23 10:39:22;;;;;;;8.73;6.45;;;;;;;26.59;48.34;93327.09;5046957;28;20206;-75
2022/11/23 10:41:50;;;;;;;9.80;5.90;;;;;;;26.99;45.75;93328.31;5045637;28;20230;-76
2022/11/23 10:44:32;;;;;;;7.25;5.70;;;;;;;26.59;45.84;93327.84;5044793;28;20194;-76
2022/11/23 10:46:59;;;;;;;5.85;4.88;;;;;;;27.23;44.30;93310.44;5047372;28;20626;-77
2022/11/23 10:49:28;;;;;;;9.02;5.82;;;;;;;27.51;42.65;93316.28;5044356;28;20205;-78
2022/11/23 10:51:57;;;;;;;9.73;4.82;;;;;;;27.80;56.11;93317.50;5043648;28;20210;-78
2022/11/23 10:54:29;;;;;;;8.75;5.53;;;;;;;27.65;41.57;93319.19;5041936;28;20194;-78
2022/11/23 10:56:57;;;;;;;4.97;3.83;;;;;;;27.09;40.31;93323.50;5043960;28;20249;-78
2022/11/23 10:59:33;;;;;;;5.88;3.97;;;;;;;26.92;40.86;93308.72;5046586;28;20668;-77
2022/11/23 11:02:19;;;;;;;8.15;4.32;;;;;;;27.27;40.46;93314.72;5040063;28;20190;-78
2022/11/23 11:04:49;;;;;;;5.97;4.22;;;;;;;27.86;40.24;93308.06;5048180;28;20210;-78
2022/11/23 11:07:29;;;;;;;5.82;3.85;;;;;;;27.85;35.47;93317.22;5048229;28;20198;-81
2022/11/23 11:10:03;;;;;;;5.60;1.95;;;;;;;27.65;33.62;93311.16;5047520;28;20202;-78
2022/11/23 11:12:34;;;;;;;2.55;1.35;;;;;;;26.89;33.11;93307.53;5047408;28;20222;-76
2022/11/23 11:15:04;;;;;;;2.60;1.38;;;;;;;26.60;33.13;93312.66;5048976;28;20198;-78
2022/11/23 11:17:34;;;;;;;2.40;1.40;;;;;;;26.42;33.96;93306.94;5047462;28;20221;-77
2022/11/23 11:20:02;;;;;;;4.50;1.20;;;;;;;25.40;34.16;93305.34;5047431;28;20552;-77
2022/11/23 11:22:34;;;;;;;2.88;1.50;;;;;;;24.90;34.78;93298.00;5047033;28;20678;-77
2022/11/23 11:25:05;;;;;;;5.65;2.60;;;;;;;24.16;38.99;93294.03;5049812;28;20682;-77